createdAt,value
2017-10-16T00:01:46.607Z,74.67
2017-10-16T00:04:12.404Z,74.66
2017-10-16T00:07:01.976Z,74.69
2017-10-16T00:09:59.019Z,75.62
2017-10-16T00:12:56.279Z,75.33
2017-10-16T00:25:43.383Z,74.58
2017-10-16T00:28:32.625Z,74.47
2017-10-16T00:31:30.495Z,74.46
2017-10-16T00:34:27.631Z,75.60
2017-10-16T00:47:26.411Z,75.59
2017-10-16T00:50:15.343Z,75.74
2017-10-16T00:53:12.999Z,75.80
2017-10-16T00:56:10.536Z,75.54
2017-10-16T00:59:08.109Z,75.53
2017-10-16T01:08:59.584Z,75.62
2017-10-16T01:11:48.962Z,75.63
2017-10-16T01:14:46.675Z,75.67
2017-10-16T01:17:44.857Z,75.98
2017-10-16T01:20:42.895Z,75.92
2017-10-16T01:23:39.907Z,75.92
2017-10-16T01:26:37.208Z,77.03
2017-10-16T01:32:24.343Z,75.82
2017-10-16T01:35:13.367Z,75.92
2017-10-16T01:38:10.431Z,75.90
2017-10-16T01:41:08.244Z,75.65
2017-10-16T01:44:05.396Z,75.41
2017-10-16T01:53:55.328Z,75.90
2017-10-16T01:56:44.705Z,76.05
2017-10-16T01:59:42.361Z,76.10
2017-10-16T02:02:40.217Z,76.06
2017-10-16T02:05:37.444Z,76.28
2017-10-16T02:15:28.123Z,76.52
2017-10-16T02:18:18.111Z,76.66
2017-10-16T02:21:15.157Z,76.80
2017-10-16T02:24:12.402Z,76.58
2017-10-16T02:27:10.432Z,76.45
2017-10-16T02:30:08.267Z,76.62
2017-10-16T02:33:06.262Z,76.42
2017-10-16T02:36:03.380Z,76.30
2017-10-16T02:38:29.147Z,76.34
2017-10-16T02:41:19.104Z,76.10
2017-10-16T02:44:16.424Z,75.83
2017-10-16T03:00:08.042Z,76.89
2017-10-16T03:19:45.791Z,77.74
2017-10-16T03:22:12.438Z,77.46
2017-10-16T03:41:48.648Z,78.59
2017-10-16T03:44:14.444Z,78.21
2017-10-16T04:03:50.395Z,78.35
2017-10-16T04:06:16.167Z,78.36
2017-10-16T04:09:05.335Z,78.59
2017-10-16T04:12:02.960Z,78.57
2017-10-16T04:15:00.665Z,78.06
2017-10-16T04:17:58.442Z,77.02
2017-10-16T04:20:56.184Z,76.37
2017-10-16T04:40:07.961Z,75.33
2017-10-16T04:52:38.499Z,77.00
2017-10-16T05:15:04.155Z,77.67
2017-10-16T05:17:53.406Z,78.69
2017-10-16T05:20:50.607Z,77.58
2017-10-16T05:23:48.199Z,76.83
2017-10-16T05:36:45.832Z,76.94
2017-10-16T05:39:35.096Z,76.69
2017-10-16T05:58:49.179Z,77.46
2017-10-16T06:01:38.578Z,77.44
2017-10-16T06:04:36.511Z,77.71
2017-10-16T06:07:33.472Z,77.48
2017-10-16T06:10:30.382Z,77.26
2017-10-16T06:13:27.420Z,77.41
2017-10-16T06:16:24.499Z,78.00
2017-10-16T06:19:22.628Z,78.09
2017-10-16T06:21:48.399Z,77.93
2017-10-16T06:24:38.015Z,77.46
2017-10-16T06:27:35.515Z,77.12
2017-10-16T06:30:33.446Z,76.60
2017-10-16T06:33:31.627Z,76.27
2017-10-16T06:52:44.159Z,68.60
2017-10-16T06:55:41.512Z,65.28
2017-10-16T06:58:39.261Z,63.43
2017-10-16T07:01:36.587Z,59.47
2017-10-16T07:04:33.651Z,55.81
2017-10-16T07:07:31.480Z,53.28
2017-10-16T07:09:57.249Z,51.51
2017-10-16T07:12:46.360Z,50.41
2017-10-16T07:21:07.774Z,48.68
2017-10-16T07:23:33.532Z,46.69
2017-10-16T07:25:59.288Z,46.60
2017-10-16T07:28:25.066Z,45.38
2017-10-16T07:30:50.824Z,44.10
2017-10-16T07:33:16.603Z,44.33
2017-10-16T07:35:42.402Z,45.28
2017-10-16T07:38:08.167Z,46.74
2017-10-16T07:40:33.956Z,46.11
2017-10-16T07:42:59.766Z,46.41
2017-10-16T07:45:25.540Z,43.37
2017-10-16T07:47:51.283Z,40.64
2017-10-16T07:50:17.060Z,38.84
2017-10-16T07:52:42.867Z,38.58
2017-10-16T07:55:08.620Z,38.00
2017-10-16T07:57:34.396Z,37.11
2017-10-16T08:00:00.132Z,37.63
2017-10-16T08:02:25.895Z,35.90
2017-10-16T08:04:51.636Z,35.53
2017-10-16T08:07:17.416Z,35.53
2017-10-16T08:09:43.158Z,36.54
2017-10-16T08:12:08.921Z,36.13
2017-10-16T08:14:34.696Z,37.05
2017-10-16T08:17:00.455Z,37.49
2017-10-16T08:19:26.239Z,36.58
2017-10-16T08:21:51.992Z,34.20
2017-10-16T08:24:17.775Z,34.23
2017-10-16T08:26:43.539Z,32.87
2017-10-16T08:29:09.316Z,32.38
2017-10-16T08:31:35.102Z,31.87
2017-10-16T08:34:00.864Z,31.43
2017-10-16T08:36:26.646Z,34.03
2017-10-16T08:38:52.418Z,33.87
2017-10-16T08:41:18.197Z,33.59
2017-10-16T08:43:43.983Z,35.84
2017-10-16T08:46:09.741Z,34.48
2017-10-16T08:48:35.556Z,33.50
2017-10-16T08:51:01.312Z,31.05
2017-10-16T08:53:27.076Z,31.08
2017-10-16T08:55:52.872Z,32.65
2017-10-16T08:58:18.630Z,31.82
2017-10-16T09:00:44.491Z,31.86
2017-10-16T09:03:10.272Z,30.68
2017-10-16T09:05:36.041Z,30.47
2017-10-16T09:08:01.836Z,29.18
2017-10-16T09:10:27.611Z,29.29
2017-10-16T09:12:53.418Z,29.64
2017-10-16T09:15:19.187Z,29.12
2017-10-16T09:17:44.967Z,28.61
2017-10-16T09:20:10.802Z,28.27
2017-10-16T09:22:36.613Z,28.36
2017-10-16T09:25:02.362Z,27.29
2017-10-16T09:27:28.175Z,28.32
2017-10-16T09:29:53.939Z,28.90
2017-10-16T09:32:19.699Z,28.92
2017-10-16T09:34:45.474Z,28.43
2017-10-16T09:37:11.259Z,27.38
2017-10-16T09:39:37.076Z,27.61
2017-10-16T09:42:02.840Z,28.24
2017-10-16T09:44:28.627Z,28.32
2017-10-16T09:46:54.388Z,28.03
2017-10-16T09:49:20.182Z,28.65
2017-10-16T09:51:45.950Z,27.37
2017-10-16T09:54:11.718Z,27.03
2017-10-16T09:56:37.461Z,26.63
2017-10-16T09:59:03.324Z,24.99
2017-10-16T10:01:29.107Z,26.88
2017-10-16T10:03:54.892Z,27.80
2017-10-16T10:06:20.668Z,27.63
2017-10-16T10:08:46.446Z,27.65
2017-10-16T10:11:12.248Z,26.85
2017-10-16T10:13:38.028Z,26.12
2017-10-16T10:16:03.807Z,25.38
2017-10-16T10:18:29.584Z,25.16
2017-10-16T10:20:55.355Z,25.48
2017-10-16T10:23:21.134Z,24.88
2017-10-16T10:25:46.911Z,26.52
2017-10-16T10:28:12.695Z,27.27
2017-10-16T10:30:38.436Z,26.57
2017-10-16T10:33:04.183Z,26.10
2017-10-16T10:35:29.951Z,25.70
2017-10-16T10:37:55.697Z,26.06
2017-10-16T10:40:21.473Z,26.70
2017-10-16T10:42:47.226Z,25.98
2017-10-16T10:45:13.011Z,26.02
2017-10-16T10:47:38.782Z,25.75
2017-10-16T10:50:04.543Z,26.26
2017-10-16T10:52:30.315Z,25.88
2017-10-16T10:54:56.079Z,25.62
2017-10-16T10:57:21.847Z,25.13
2017-10-16T10:59:47.623Z,25.96
2017-10-16T11:02:13.382Z,24.76
2017-10-16T11:04:39.183Z,26.52
2017-10-16T11:07:04.952Z,24.01
2017-10-16T11:09:30.751Z,23.95
2017-10-16T11:11:56.525Z,24.60
2017-10-16T11:14:22.299Z,23.93
2017-10-16T11:16:48.096Z,24.28
2017-10-16T11:19:13.851Z,23.88
2017-10-16T11:21:39.639Z,25.07
2017-10-16T11:24:05.431Z,23.56
2017-10-16T11:26:31.234Z,23.27
2017-10-16T11:28:57.040Z,23.30
2017-10-16T11:31:22.810Z,24.19
2017-10-16T11:33:48.607Z,23.87
2017-10-16T11:36:14.359Z,24.16
2017-10-16T11:38:40.111Z,23.02
2017-10-16T11:41:05.919Z,21.51
2017-10-16T11:43:31.702Z,22.07
2017-10-16T11:45:57.485Z,23.40
2017-10-16T11:48:23.315Z,24.21
2017-10-16T11:50:49.083Z,26.31
2017-10-16T11:53:14.884Z,25.26
2017-10-16T11:55:40.678Z,24.46
2017-10-16T11:58:06.478Z,25.66
2017-10-16T12:00:32.252Z,22.96
2017-10-16T12:02:58.083Z,24.18
2017-10-16T12:05:23.904Z,23.72
2017-10-16T12:07:49.738Z,25.12
2017-10-16T12:10:15.582Z,24.38
2017-10-16T12:12:41.342Z,24.15
2017-10-16T12:15:07.253Z,24.04
2017-10-16T12:17:33.067Z,24.96
2017-10-16T12:19:58.853Z,24.04
2017-10-16T12:22:24.698Z,25.80
2017-10-16T12:24:50.484Z,25.37
2017-10-16T12:27:16.255Z,24.90
2017-10-16T12:29:42.043Z,23.93
2017-10-16T12:32:07.840Z,24.55
2017-10-16T12:34:33.639Z,26.25
2017-10-16T12:36:59.396Z,26.72
2017-10-16T12:39:25.200Z,29.34
2017-10-16T12:41:51.004Z,26.02
2017-10-16T12:44:16.807Z,25.81
2017-10-16T12:46:42.595Z,25.47
2017-10-16T12:49:08.374Z,26.76
2017-10-16T12:51:34.175Z,26.75
2017-10-16T12:53:59.963Z,27.24
2017-10-16T12:56:25.738Z,26.39
2017-10-16T12:58:51.523Z,27.25
2017-10-16T13:01:17.366Z,27.27
2017-10-16T13:03:43.148Z,27.95
2017-10-16T13:06:08.947Z,28.22
2017-10-16T13:08:34.720Z,27.13
2017-10-16T13:11:00.500Z,26.87
2017-10-16T13:13:26.282Z,28.12
2017-10-16T13:15:52.080Z,28.78
2017-10-16T13:18:17.879Z,28.44
2017-10-16T13:20:43.680Z,28.22
2017-10-16T13:23:09.443Z,28.95
2017-10-16T13:25:35.243Z,29.53
2017-10-16T13:28:01.038Z,28.62
2017-10-16T13:30:26.787Z,29.08
2017-10-16T13:32:52.591Z,29.58
2017-10-16T13:35:18.449Z,29.51
2017-10-16T13:37:44.267Z,29.59
2017-10-16T13:40:10.036Z,28.98
2017-10-16T13:42:35.867Z,29.67
2017-10-16T13:45:01.648Z,30.50
2017-10-16T13:47:27.465Z,30.19
2017-10-16T13:49:53.299Z,30.63
2017-10-16T13:52:19.092Z,30.22
2017-10-16T13:54:44.915Z,30.00
2017-10-16T13:57:10.729Z,29.12
2017-10-16T13:59:36.571Z,28.37
2017-10-16T14:02:02.402Z,29.39
2017-10-16T14:04:28.210Z,29.45
2017-10-16T14:06:54.036Z,28.51
2017-10-16T14:09:19.811Z,28.93
2017-10-16T14:11:45.617Z,29.33
2017-10-16T14:14:11.419Z,28.45
2017-10-16T14:16:37.204Z,28.92
2017-10-16T14:19:02.987Z,29.31
2017-10-16T14:21:28.827Z,28.86
2017-10-16T14:23:54.635Z,28.60
2017-10-16T14:26:20.472Z,28.67
2017-10-16T14:28:46.280Z,28.46
2017-10-16T14:31:12.071Z,28.96
2017-10-16T14:33:37.884Z,29.39
2017-10-16T14:36:03.684Z,29.74
2017-10-16T14:38:29.443Z,29.49
2017-10-16T14:40:55.258Z,29.64
2017-10-16T14:43:21.030Z,29.80
2017-10-16T14:45:46.872Z,29.35
2017-10-16T14:48:12.711Z,29.35
2017-10-16T14:50:38.511Z,29.34
2017-10-16T14:53:04.319Z,29.18
2017-10-16T14:55:30.105Z,30.17
2017-10-16T14:57:55.882Z,30.03
2017-10-16T15:00:21.712Z,30.02
2017-10-16T15:02:47.537Z,30.12
2017-10-16T15:05:13.362Z,30.32
2017-10-16T15:07:39.181Z,30.43
2017-10-16T15:10:04.971Z,29.95
2017-10-16T15:12:30.754Z,30.07
2017-10-16T15:14:56.547Z,29.95
2017-10-16T15:17:22.398Z,29.41
2017-10-16T15:19:48.139Z,29.52
2017-10-16T15:22:15.310Z,30.13
2017-10-16T15:24:41.135Z,30.07
2017-10-16T15:27:06.954Z,30.03
2017-10-16T15:29:32.708Z,30.17
2017-10-16T15:31:58.542Z,29.77
2017-10-16T15:34:24.343Z,30.32
2017-10-16T15:36:50.111Z,31.06
2017-10-16T15:39:15.924Z,31.42
2017-10-16T15:41:41.758Z,31.60
2017-10-16T15:44:07.551Z,31.67
2017-10-16T15:46:33.358Z,32.04
2017-10-16T15:48:59.147Z,31.91
2017-10-16T15:51:24.967Z,32.65
2017-10-16T15:53:50.848Z,33.14
2017-10-16T15:56:16.610Z,33.74
2017-10-16T15:58:42.375Z,34.44
2017-10-16T16:01:08.175Z,34.93
2017-10-16T16:03:34.018Z,35.58
2017-10-16T16:05:59.807Z,36.20
2017-10-16T16:08:25.562Z,36.71
2017-10-16T16:10:51.370Z,36.88
2017-10-16T16:13:17.147Z,37.44
2017-10-16T16:15:42.928Z,37.69
2017-10-16T16:18:08.704Z,38.61
2017-10-16T16:20:34.482Z,39.46
2017-10-16T16:23:00.259Z,39.40
2017-10-16T16:25:26.043Z,40.58
2017-10-16T16:27:51.810Z,41.09
2017-10-16T16:30:17.639Z,42.06
2017-10-16T16:32:43.393Z,42.73
2017-10-16T16:35:09.174Z,42.41
2017-10-16T16:37:34.951Z,42.59
2017-10-16T16:40:00.797Z,42.64
2017-10-16T16:42:26.635Z,43.80
2017-10-16T16:44:52.398Z,44.66
2017-10-16T16:47:18.176Z,45.12
2017-10-16T16:49:43.954Z,45.25
2017-10-16T16:52:09.755Z,45.63
2017-10-16T16:54:35.536Z,45.73
2017-10-16T16:57:01.351Z,46.52
2017-10-16T16:59:27.155Z,47.09
2017-10-16T17:01:52.969Z,47.43
2017-10-16T17:04:18.760Z,47.84
2017-10-16T17:06:44.524Z,47.94
2017-10-16T17:09:10.298Z,48.95
2017-10-16T17:11:36.103Z,49.27
2017-10-16T17:14:01.904Z,49.84
2017-10-16T17:16:27.659Z,50.34
2017-10-16T17:18:53.406Z,50.38
2017-10-16T17:21:19.187Z,51.33
2017-10-16T17:23:44.954Z,51.84
2017-10-16T17:26:10.751Z,52.03
2017-10-16T17:28:36.563Z,52.10
2017-10-16T17:31:02.323Z,51.87
2017-10-16T17:33:28.091Z,52.21
2017-10-16T17:35:53.903Z,52.37
2017-10-16T17:38:19.672Z,52.63
2017-10-16T17:40:45.484Z,52.45
2017-10-16T17:43:11.288Z,52.57
2017-10-16T17:45:37.071Z,52.42
2017-10-16T17:48:02.907Z,53.10
2017-10-16T17:50:28.687Z,53.47
2017-10-16T17:52:54.492Z,54.06
2017-10-16T17:55:20.320Z,54.23
2017-10-16T17:57:46.110Z,53.74
2017-10-16T18:00:11.899Z,54.51
2017-10-16T18:02:37.690Z,54.49
2017-10-16T18:05:03.484Z,54.91
2017-10-16T18:07:29.263Z,55.39
2017-10-16T18:09:55.062Z,55.76
2017-10-16T18:12:20.880Z,56.27
2017-10-16T18:14:46.662Z,56.79
2017-10-16T18:17:12.449Z,56.87
2017-10-16T18:19:38.222Z,56.86
2017-10-16T18:22:03.998Z,57.16
2017-10-16T18:24:29.818Z,57.75
2017-10-16T18:26:55.600Z,57.92
2017-10-16T18:29:21.399Z,58.02
2017-10-16T18:31:47.182Z,58.39
2017-10-16T18:34:12.951Z,58.79
2017-10-16T18:36:38.728Z,58.94
2017-10-16T18:39:04.515Z,59.26
2017-10-16T18:41:30.375Z,59.87
2017-10-16T18:43:56.141Z,59.96
2017-10-16T18:46:22.024Z,60.52
2017-10-16T18:48:47.812Z,60.36
2017-10-16T18:51:13.573Z,60.60
2017-10-16T18:53:39.372Z,60.74
2017-10-16T18:56:05.192Z,61.11
2017-10-16T18:58:31.004Z,61.07
2017-10-16T19:00:56.845Z,61.41
2017-10-16T19:03:22.639Z,61.41
2017-10-16T19:05:48.399Z,61.59
2017-10-16T19:08:14.253Z,61.83
2017-10-16T19:10:40.021Z,62.27
2017-10-16T19:13:05.816Z,62.46
2017-10-16T19:15:31.727Z,62.62
2017-10-16T19:17:57.539Z,62.57
2017-10-16T19:20:23.355Z,62.87
2017-10-16T19:22:49.183Z,62.85
2017-10-16T19:25:15.024Z,63.23
2017-10-16T19:27:40.812Z,63.22
2017-10-16T19:30:06.604Z,63.41
2017-10-16T19:32:32.375Z,63.84
2017-10-16T19:34:58.163Z,63.89
2017-10-16T19:37:24.022Z,64.22
2017-10-16T19:39:49.824Z,64.24
2017-10-16T19:42:15.593Z,64.59
2017-10-16T19:44:41.367Z,64.93
2017-10-16T19:47:07.163Z,65.46
2017-10-16T19:49:32.935Z,65.60
2017-10-16T19:51:58.721Z,65.94
2017-10-16T19:54:24.527Z,66.23
2017-10-16T19:56:50.336Z,67.10
2017-10-16T19:59:16.111Z,66.97
2017-10-16T20:01:41.938Z,66.64
2017-10-16T20:04:07.740Z,67.04
2017-10-16T20:06:33.582Z,67.03
2017-10-16T20:08:59.430Z,67.09
2017-10-16T20:11:25.255Z,67.22
2017-10-16T20:13:51.085Z,67.32
2017-10-16T20:16:16.968Z,67.79
2017-10-16T20:18:43.641Z,68.17
2017-10-16T20:21:09.565Z,67.97
2017-10-16T20:23:35.402Z,67.61
2017-10-16T20:26:01.301Z,66.49
2017-10-16T20:28:27.215Z,65.06
2017-10-16T20:30:53.049Z,64.16
2017-10-16T20:33:18.892Z,64.00
2017-10-16T20:35:44.743Z,63.24
2017-10-16T20:38:10.559Z,63.52
2017-10-16T20:40:36.399Z,63.16
2017-10-16T20:43:02.223Z,63.17
2017-10-16T20:45:28.088Z,63.18
2017-10-16T20:47:53.911Z,63.03
2017-10-16T20:50:19.849Z,63.13
2017-10-16T20:52:45.711Z,63.01
2017-10-16T20:55:11.535Z,62.95
2017-10-16T20:57:37.405Z,62.61
2017-10-16T21:00:03.245Z,64.08
2017-10-16T21:02:29.185Z,63.07
2017-10-16T21:04:54.986Z,64.72
2017-10-16T21:07:20.836Z,65.27
2017-10-16T21:09:46.755Z,65.93
2017-10-16T21:12:12.595Z,65.77
2017-10-16T21:14:38.462Z,65.35
2017-10-16T21:17:04.290Z,65.61
2017-10-16T21:19:30.135Z,65.31
2017-10-16T21:21:55.938Z,64.82
2017-10-16T21:24:21.751Z,64.28
2017-10-16T21:26:47.592Z,64.16
2017-10-16T21:29:13.427Z,64.46
2017-10-16T21:31:39.279Z,64.15
2017-10-16T21:34:05.129Z,64.33
2017-10-16T21:36:31.035Z,64.46
2017-10-16T21:38:56.868Z,64.76
2017-10-16T21:41:22.682Z,65.37
2017-10-16T21:43:48.511Z,66.00
2017-10-16T21:46:14.335Z,66.73
2017-10-16T21:48:40.183Z,67.26
2017-10-16T21:51:06.020Z,67.31
2017-10-16T21:53:31.839Z,66.98
2017-10-16T21:55:57.694Z,66.31
2017-10-16T21:58:23.580Z,66.27
2017-10-16T22:00:49.397Z,66.89
2017-10-16T22:03:15.339Z,66.97
2017-10-16T22:05:41.192Z,66.65
2017-10-16T22:08:07.023Z,66.80
2017-10-16T22:10:32.879Z,67.31
2017-10-16T22:12:58.720Z,67.12
2017-10-16T22:15:24.627Z,66.41
2017-10-16T22:17:50.459Z,66.35
2017-10-16T22:20:16.289Z,66.22
2017-10-16T22:22:42.216Z,66.28
2017-10-16T22:25:08.071Z,65.37
2017-10-16T22:27:33.951Z,65.22
2017-10-16T22:29:59.787Z,64.97
2017-10-16T22:32:25.603Z,64.67
2017-10-16T22:34:51.422Z,64.57
2017-10-16T22:37:17.266Z,64.54
2017-10-16T22:39:43.148Z,63.79
2017-10-16T22:42:09.015Z,63.36
2017-10-16T22:44:34.879Z,62.66
2017-10-16T22:47:00.751Z,62.72
2017-10-16T22:49:26.584Z,62.76
2017-10-16T22:51:52.444Z,62.12
2017-10-16T22:54:30.627Z,62.17
2017-10-16T22:56:56.450Z,62.04
2017-10-16T22:59:22.268Z,61.84
2017-10-16T23:01:48.099Z,61.30
2017-10-16T23:04:13.899Z,61.31
2017-10-16T23:06:39.695Z,60.55
2017-10-16T23:09:05.529Z,60.68
2017-10-16T23:11:31.359Z,60.72
2017-10-16T23:16:22.435Z,60.09
2017-10-16T23:18:48.188Z,60.01
2017-10-16T23:21:13.987Z,59.64
2017-10-16T23:23:39.783Z,59.53
2017-10-16T23:26:05.545Z,59.06
2017-10-16T23:28:31.339Z,58.82
2017-10-16T23:30:57.093Z,59.37
2017-10-16T23:33:22.887Z,58.97
2017-10-16T23:35:48.680Z,59.08
2017-10-16T23:38:14.548Z,59.49
2017-10-16T23:40:40.331Z,59.62
2017-10-16T23:43:06.136Z,59.92
2017-10-16T23:45:31.903Z,60.26
2017-10-16T23:47:57.727Z,60.34
2017-10-16T23:50:23.502Z,59.84
2017-10-16T23:52:49.292Z,59.79
2017-10-16T23:55:15.146Z,58.95
2017-10-16T23:57:41.031Z,58.69
